createdAt,value
2023-06-19T00:04:19.557Z,99645.78
2023-06-19T00:09:21.525Z,99641.59
2023-06-19T00:14:23.416Z,99645.66
2023-06-19T00:19:25.138Z,99652.44
2023-06-19T00:24:26.971Z,99648.94
2023-06-19T00:29:29.418Z,99646.22
2023-06-19T00:34:32.697Z,99632.84
2023-06-19T00:39:34.510Z,99632.06
2023-06-19T00:44:36.282Z,99632.97
2023-06-19T00:49:38.294Z,99638.06
2023-06-19T00:54:40.582Z,99628.72
2023-06-19T00:59:42.473Z,99632.22
2023-06-19T01:04:44.249Z,99635.78
2023-06-19T01:09:54.385Z,99637.69
2023-06-19T01:15:00.065Z,99637.78
2023-06-19T01:20:08.055Z,99641.34
2023-06-19T01:25:10.082Z,99637.19
2023-06-19T01:30:13.911Z,99644.88
2023-06-19T01:35:18.784Z,99639.94
2023-06-19T01:40:26.119Z,99637.53
2023-06-19T01:45:30.797Z,99646.13
2023-06-19T01:50:32.783Z,99635.13
2023-06-19T01:55:34.576Z,99625.09
2023-06-19T02:00:36.434Z,99619.31
2023-06-19T02:05:40.914Z,99619.38
2023-06-19T02:10:42.950Z,99623.75
2023-06-19T02:15:44.789Z,99625.72
2023-06-19T02:20:46.591Z,99637.81
2023-06-19T02:25:48.301Z,99627.66
2023-06-19T02:30:55.345Z,99626.84
2023-06-19T02:36:00.488Z,99629.38
2023-06-19T02:41:02.967Z,99622.69
2023-06-19T02:46:04.802Z,99627.16
2023-06-19T02:51:06.866Z,99636.38
2023-06-19T02:56:09.099Z,99633.03
2023-06-19T03:01:11.115Z,99639.81
2023-06-19T03:06:14.553Z,99634.19
2023-06-19T03:11:16.582Z,99635.09
2023-06-19T03:16:18.905Z,99638.47
2023-06-19T03:21:21.254Z,99643.50
2023-06-19T03:26:26.045Z,99642.63
2023-06-19T03:31:28.935Z,99653.47
2023-06-19T03:36:33.458Z,99649.69
2023-06-19T03:41:42.258Z,99648.28
2023-06-19T03:46:44.194Z,99658.72
2023-06-19T03:51:46.155Z,99651.22
2023-06-19T03:56:47.826Z,99643.78
2023-06-19T04:01:49.780Z,99643.34
2023-06-19T04:06:52.925Z,99650.16
2023-06-19T04:11:54.857Z,99649.22
2023-06-19T04:16:58.549Z,99660.47
2023-06-19T04:22:02.854Z,99652.72
2023-06-19T04:27:04.909Z,99658.91
2023-06-19T04:32:12.411Z,99672.06
2023-06-19T04:37:14.337Z,99674.63
2023-06-19T04:42:21.616Z,99669.50
2023-06-19T04:47:26.780Z,99674.28
2023-06-19T04:52:34.424Z,99681.84
2023-06-19T04:57:37.971Z,99684.06
2023-06-19T05:02:40.420Z,99683.72
2023-06-19T05:07:42.526Z,99686.69
2023-06-19T05:12:44.550Z,99689.44
2023-06-19T05:17:47.838Z,99684.13
2023-06-19T05:22:49.677Z,99684.94
2023-06-19T05:27:51.498Z,99689.72
2023-06-19T05:32:53.260Z,99680.47
2023-06-19T05:37:55.049Z,99685.97
2023-06-19T05:42:57.349Z,99690.72
2023-06-19T05:47:59.206Z,99690.56
2023-06-19T05:53:01.054Z,99694.31
2023-06-19T05:58:03.776Z,99687.97
2023-06-19T06:03:05.675Z,99692.25
2023-06-19T06:08:08.144Z,99687.94
2023-06-19T06:13:09.891Z,99687.31
2023-06-19T06:18:11.626Z,99690.47
2023-06-19T06:23:13.996Z,99699.53
2023-06-19T06:28:16.139Z,99711.16
2023-06-19T06:33:20.046Z,99712.34
2023-06-19T06:38:21.954Z,99717.66
2023-06-19T06:43:23.701Z,99716.78
2023-06-19T06:48:25.421Z,99728.53
2023-06-19T06:53:27.244Z,99732.81
2023-06-19T06:58:28.910Z,99735.81
2023-06-19T07:03:32.729Z,99726.50
2023-06-19T07:08:34.747Z,99723.59
2023-06-19T07:13:36.860Z,99719.44
2023-06-19T07:18:40.023Z,99731.81
2023-06-19T07:23:43.638Z,99729.78
2023-06-19T07:28:45.564Z,99713.22
2023-06-19T07:33:47.227Z,99720.56
2023-06-19T07:38:48.860Z,99715.25
2023-06-19T07:43:50.624Z,99718.91
2023-06-19T07:48:52.454Z,99720.31
2023-06-19T07:53:54.062Z,99713.16
2023-06-19T07:58:55.975Z,99720.19
2023-06-19T08:03:58.021Z,99728.00
2023-06-19T08:08:59.717Z,99732.06
2023-06-19T08:14:01.460Z,99728.06
2023-06-19T08:19:03.287Z,99726.03
2023-06-19T08:24:05.437Z,99725.97
2023-06-19T08:29:07.142Z,99737.09
2023-06-19T08:34:10.778Z,99724.47
2023-06-19T08:39:12.873Z,99723.13
2023-06-19T08:44:14.762Z,99724.47
2023-06-19T08:49:17.522Z,99725.78
2023-06-19T08:54:20.967Z,99737.91
2023-06-19T08:59:22.755Z,99728.50
2023-06-19T09:04:29.098Z,99732.91
2023-06-19T09:09:32.105Z,99742.31
2023-06-19T09:14:47.236Z,99738.72
2023-06-19T09:19:53.098Z,99743.44
2023-06-19T09:24:54.963Z,99746.72
2023-06-19T09:29:57.425Z,99739.78
2023-06-19T09:35:01.274Z,99729.16
2023-06-19T09:40:11.855Z,99733.75
2023-06-19T09:45:19.834Z,99731.00
2023-06-19T09:50:24.509Z,99727.28
2023-06-19T09:55:31.886Z,99732.66
2023-06-19T10:00:34.495Z,99724.41
2023-06-19T10:05:37.473Z,99729.13
2023-06-19T10:10:49.491Z,99736.47
2023-06-19T10:15:51.173Z,99734.41
2023-06-19T10:20:53.240Z,99737.81
2023-06-19T10:25:55.017Z,99735.41
2023-06-19T10:30:58.021Z,99729.09
2023-06-19T10:36:01.402Z,99738.34
2023-06-19T10:41:03.176Z,99728.78
2023-06-19T10:46:05.520Z,99725.81
2023-06-19T10:51:07.353Z,99718.84
2023-06-19T10:56:09.001Z,99730.59
2023-06-19T11:01:11.884Z,99728.88
2023-06-19T11:06:20.990Z,99724.06
2023-06-19T11:11:22.847Z,99722.81
2023-06-19T11:16:24.955Z,99716.84
2023-06-19T11:21:39.623Z,99715.69
2023-06-19T11:26:52.622Z,99704.09
2023-06-19T11:32:26.181Z,99706.66
2023-06-19T11:37:30.681Z,99708.88
2023-06-19T11:42:33.284Z,99706.97
2023-06-19T11:47:35.583Z,99714.00
2023-06-19T11:52:37.715Z,99702.22
2023-06-19T11:57:40.413Z,99695.13
2023-06-19T12:02:42.280Z,99695.84
2023-06-19T12:07:44.246Z,99693.56
2023-06-19T12:12:46.015Z,99691.78
2023-06-19T12:17:48.323Z,99693.69
2023-06-19T12:22:50.615Z,99694.06
2023-06-19T12:27:55.478Z,99681.56
2023-06-19T12:32:58.141Z,99678.44
2023-06-19T12:37:59.839Z,99671.16
2023-06-19T12:43:01.512Z,99672.38
2023-06-19T12:48:03.227Z,99672.31
2023-06-19T12:53:05.218Z,99669.66
2023-06-19T12:58:07.049Z,99662.16
2023-06-19T13:03:09.021Z,99674.97
2023-06-19T13:08:12.177Z,99682.97
2023-06-19T13:13:14.572Z,99672.28
2023-06-19T13:18:16.680Z,99662.81
2023-06-19T13:23:18.452Z,99663.16
2023-06-19T13:28:20.296Z,99660.94
2023-06-19T13:33:22.064Z,99667.94
2023-06-19T13:38:23.970Z,99663.69
2023-06-19T13:43:26.082Z,99675.44
2023-06-19T13:48:28.013Z,99681.16
2023-06-19T13:53:30.866Z,99684.63
2023-06-19T13:58:32.560Z,99672.13
2023-06-19T14:03:35.316Z,99682.25
2023-06-19T14:08:36.994Z,99682.28
2023-06-19T14:13:38.698Z,99680.09
2023-06-19T14:18:40.414Z,99676.47
2023-06-19T14:23:44.472Z,99690.38
2023-06-19T14:28:46.503Z,99676.94
2023-06-19T14:33:48.587Z,99666.78
2023-06-19T14:38:50.356Z,99658.00
2023-06-19T14:43:52.091Z,99657.78
2023-06-19T14:48:53.768Z,99663.22
2023-06-19T14:53:55.756Z,99658.97
2023-06-19T14:58:57.771Z,99667.88
2023-06-19T15:03:59.523Z,99665.44
2023-06-19T15:09:03.140Z,99658.38
2023-06-19T15:14:07.034Z,99663.69
2023-06-19T15:19:09.078Z,99657.53
2023-06-19T15:24:10.965Z,99657.50
2023-06-19T15:29:12.903Z,99644.97
2023-06-19T15:34:14.632Z,99651.00
2023-06-19T15:39:16.339Z,99646.53
2023-06-19T15:44:18.016Z,99645.66
2023-06-19T15:49:20.104Z,99642.94
2023-06-19T15:54:21.866Z,99641.75
2023-06-19T15:59:23.534Z,99645.63
2023-06-19T16:04:25.439Z,99643.31
2023-06-19T16:09:27.866Z,99644.03
2023-06-19T16:14:29.784Z,99648.75
2023-06-19T16:19:31.847Z,99639.53
2023-06-19T16:24:33.691Z,99640.44
2023-06-19T16:29:35.467Z,99640.25
2023-06-19T16:34:37.389Z,99644.00
2023-06-19T16:39:39.217Z,99656.78
2023-06-19T16:44:41.527Z,99650.19
2023-06-19T16:49:43.245Z,99658.09
2023-06-19T16:54:44.910Z,99660.31
2023-06-19T16:59:46.818Z,99653.25
2023-06-19T17:04:48.515Z,99643.44
2023-06-19T17:09:50.488Z,99640.78
2023-06-19T17:14:52.221Z,99649.16
2023-06-19T17:19:54.637Z,99646.56
2023-06-19T17:24:56.624Z,99650.34
2023-06-19T17:29:58.425Z,99649.69
2023-06-19T17:35:03.238Z,99656.81
2023-06-19T17:40:06.720Z,99650.00
2023-06-19T17:45:10.021Z,99650.72
2023-06-19T17:50:13.136Z,99641.00
2023-06-19T17:55:14.973Z,99648.41
2023-06-19T18:00:17.211Z,99645.03
2023-06-19T18:05:18.977Z,99654.38
2023-06-19T18:10:20.724Z,99643.22
2023-06-19T18:15:22.416Z,99642.47
2023-06-19T18:20:24.366Z,99645.69
2023-06-19T18:25:26.398Z,99644.63
2023-06-19T18:30:28.270Z,99646.13
2023-06-19T18:35:31.138Z,99654.47
2023-06-19T18:40:33.160Z,99655.19
2023-06-19T18:45:35.173Z,99656.69
2023-06-19T18:50:37.513Z,99658.78
2023-06-19T18:55:43.195Z,99662.50
2023-06-19T19:00:46.618Z,99665.25
2023-06-19T19:05:49.589Z,99674.75
2023-06-19T19:10:51.556Z,99672.34
2023-06-19T19:15:53.352Z,99667.56
2023-06-19T19:20:55.317Z,99670.28
2023-06-19T19:25:57.372Z,99676.81
2023-06-19T19:30:58.981Z,99683.69
2023-06-19T19:36:02.282Z,99692.03
2023-06-19T19:41:03.969Z,99708.94
2023-06-19T19:46:05.713Z,99711.34
2023-06-19T19:51:07.459Z,99720.06
2023-06-19T19:56:09.447Z,99721.00
2023-06-19T20:01:11.296Z,99716.56
2023-06-19T20:06:13.204Z,99718.50
2023-06-19T20:11:15.211Z,99732.28
2023-06-19T20:16:16.953Z,99722.53
2023-06-19T20:21:18.672Z,99721.59
2023-06-19T20:26:20.440Z,99717.34
2023-06-19T20:31:22.098Z,99723.38
2023-06-19T20:36:25.092Z,99728.66
2023-06-19T20:41:26.966Z,99731.66
2023-06-19T20:46:28.808Z,99739.81
2023-06-19T20:51:30.518Z,99737.63
2023-06-19T20:56:32.576Z,99739.72
2023-06-19T21:01:34.411Z,99736.69
2023-06-19T21:06:36.490Z,99730.28
2023-06-19T21:11:41.447Z,99729.94
2023-06-19T21:16:43.291Z,99727.91
2023-06-19T21:21:45.388Z,99734.22
2023-06-19T21:26:47.457Z,99735.38
2023-06-19T21:31:49.170Z,99737.34
2023-06-19T21:36:51.288Z,99739.34
2023-06-19T21:41:53.124Z,99731.25
2023-06-19T21:46:55.047Z,99744.25
2023-06-19T21:51:56.874Z,99740.38
2023-06-19T21:56:58.972Z,99738.91
2023-06-19T22:02:00.679Z,99731.53
2023-06-19T22:07:02.500Z,99729.28
2023-06-19T22:12:04.602Z,99721.00
2023-06-19T22:17:07.151Z,99718.09
2023-06-19T22:22:08.947Z,99723.81
2023-06-19T22:27:10.893Z,99717.16
2023-06-19T22:32:12.519Z,99715.13
2023-06-19T22:37:16.145Z,99724.09
2023-06-19T22:42:19.126Z,99717.88
2023-06-19T22:47:21.743Z,99714.03
2023-06-19T22:52:24.332Z,99713.06
2023-06-19T22:57:26.103Z,99716.59
2023-06-19T23:02:27.931Z,99716.78
2023-06-19T23:07:32.823Z,99710.19
2023-06-19T23:12:35.454Z,99731.22
2023-06-19T23:17:37.207Z,99734.69
2023-06-19T23:22:40.974Z,99722.88
2023-06-19T23:27:42.696Z,99720.97
2023-06-19T23:32:44.632Z,99724.41
2023-06-19T23:37:46.576Z,99725.31
2023-06-19T23:42:48.410Z,99725.53
2023-06-19T23:47:50.299Z,99718.03
2023-06-19T23:52:52.240Z,99715.72
2023-06-19T23:57:53.904Z,99710.16
